createdAt,value
2023-01-19T00:00:15.575Z,71.18
2023-01-19T00:01:09.525Z,71.08
2023-01-19T00:01:45.140Z,71.18
2023-01-19T00:02:21.456Z,71.14
2023-01-19T00:02:55.329Z,71.22
2023-01-19T00:03:39.101Z,71.40
2023-01-19T00:04:12.599Z,71.23
2023-01-19T00:04:46.285Z,71.13
2023-01-19T00:05:19.911Z,71.22
2023-01-19T00:05:53.613Z,71.18
2023-01-19T00:06:29.309Z,71.22
2023-01-19T00:07:05.812Z,70.99
2023-01-19T00:07:46.890Z,70.99
2023-01-19T00:08:24.702Z,71.04
2023-01-19T00:09:00.683Z,70.94
2023-01-19T00:09:38.643Z,70.89
2023-01-19T00:10:13.863Z,70.98
2023-01-19T00:10:53.852Z,71.09
2023-01-19T00:11:30.074Z,71.17
2023-01-19T00:12:03.694Z,71.07
2023-01-19T00:12:37.202Z,71.21
2023-01-19T00:13:10.839Z,70.94
2023-01-19T00:13:51.067Z,70.97
2023-01-19T00:14:30.200Z,71.07
2023-01-19T00:15:04.263Z,71.22
2023-01-19T00:15:37.991Z,71.15
2023-01-19T00:16:20.379Z,71.43
2023-01-19T00:16:54.128Z,71.25
2023-01-19T00:17:32.488Z,71.57
2023-01-19T00:18:11.396Z,71.36
2023-01-19T00:18:50.796Z,71.25
2023-01-19T00:19:24.698Z,71.32
2023-01-19T00:19:58.322Z,71.39
2023-01-19T00:20:38.840Z,71.47
2023-01-19T00:21:17.315Z,71.30
2023-01-19T00:21:50.893Z,71.21
2023-01-19T00:22:24.446Z,71.35
2023-01-19T00:22:58.352Z,71.23
2023-01-19T00:23:33.955Z,70.93
2023-01-19T00:24:07.813Z,71.20
2023-01-19T00:24:41.381Z,71.26
2023-01-19T00:25:14.994Z,71.44
2023-01-19T00:25:49.480Z,71.12
2023-01-19T00:26:24.351Z,71.41
2023-01-19T00:26:58.979Z,71.36
2023-01-19T00:27:35.125Z,71.39
2023-01-19T00:28:11.885Z,71.62
2023-01-19T00:28:45.564Z,71.48
2023-01-19T00:29:22.183Z,71.28
2023-01-19T00:29:58.146Z,71.39
2023-01-19T00:30:31.600Z,71.39
2023-01-19T00:31:05.330Z,71.17
2023-01-19T00:31:39.292Z,71.17
2023-01-19T00:32:14.755Z,71.25
2023-01-19T00:32:48.332Z,71.30
2023-01-19T00:33:21.936Z,71.25
2023-01-19T00:33:55.717Z,71.05
2023-01-19T00:34:39.312Z,71.20
2023-01-19T00:35:12.874Z,71.55
2023-01-19T00:35:51.860Z,71.63
2023-01-19T00:36:25.551Z,71.96
2023-01-19T00:37:02.268Z,71.79
2023-01-19T00:37:36.016Z,71.72
2023-01-19T00:38:11.441Z,71.95
2023-01-19T00:38:44.961Z,71.96
2023-01-19T00:39:18.575Z,71.95
2023-01-19T00:39:52.048Z,72.22
2023-01-19T00:40:25.677Z,72.11
2023-01-19T00:40:59.370Z,72.03
2023-01-19T00:41:51.616Z,72.07
2023-01-19T00:42:41.611Z,72.35
2023-01-19T00:43:17.582Z,72.06
2023-01-19T00:43:58.525Z,71.98
2023-01-19T00:44:32.071Z,72.24
2023-01-19T00:45:06.817Z,72.07
2023-01-19T00:45:40.878Z,72.22
2023-01-19T00:46:14.575Z,72.25
2023-01-19T00:46:48.393Z,72.27
2023-01-19T00:47:21.953Z,72.50
2023-01-19T00:48:00.428Z,72.40
2023-01-19T00:48:36.442Z,72.36
2023-01-19T00:49:10.429Z,72.65
2023-01-19T00:49:45.672Z,72.63
2023-01-19T00:50:19.347Z,72.49
2023-01-19T00:50:52.903Z,72.50
2023-01-19T00:51:35.470Z,72.66
2023-01-19T00:52:10.074Z,72.67
2023-01-19T00:52:45.082Z,72.61
2023-01-19T00:53:18.637Z,72.73
2023-01-19T00:53:52.291Z,72.65
2023-01-19T00:54:27.699Z,72.67
2023-01-19T00:55:01.470Z,72.73
2023-01-19T00:55:35.855Z,72.62
2023-01-19T00:56:09.376Z,72.71
2023-01-19T00:56:45.435Z,73.03
2023-01-19T00:57:21.993Z,72.70
2023-01-19T00:57:59.907Z,72.70
2023-01-19T00:58:36.299Z,72.89
2023-01-19T00:59:11.108Z,72.90
2023-01-19T00:59:44.803Z,73.03
2023-01-19T01:00:20.352Z,72.87
2023-01-19T01:00:54.509Z,72.86
2023-01-19T01:01:44.945Z,72.98
2023-01-19T01:02:19.987Z,72.98
2023-01-19T01:02:54.431Z,73.04
2023-01-19T01:03:28.306Z,72.96
2023-01-19T01:04:02.008Z,72.97
2023-01-19T01:04:35.917Z,73.02
2023-01-19T01:05:10.091Z,73.11
2023-01-19T01:05:43.615Z,73.30
2023-01-19T01:06:17.180Z,73.26
2023-01-19T01:06:50.715Z,73.20
2023-01-19T01:07:25.193Z,73.19
2023-01-19T01:07:58.806Z,73.18
2023-01-19T01:08:32.569Z,73.04
2023-01-19T01:09:13.139Z,73.37
2023-01-19T01:09:48.352Z,73.53
2023-01-19T01:10:28.007Z,73.56
2023-01-19T01:11:01.778Z,73.58
2023-01-19T01:11:35.394Z,73.64
2023-01-19T01:12:08.969Z,73.42
2023-01-19T01:12:57.623Z,73.52
2023-01-19T01:13:33.089Z,73.62
2023-01-19T01:14:07.729Z,73.81
2023-01-19T01:14:41.349Z,73.91
2023-01-19T01:15:16.419Z,73.70
2023-01-19T01:15:51.850Z,73.58
2023-01-19T01:16:25.468Z,73.63
2023-01-19T01:16:59.219Z,73.79
2023-01-19T01:17:33.103Z,73.56
2023-01-19T01:18:06.817Z,73.60
2023-01-19T01:18:40.366Z,73.65
2023-01-19T01:19:14.049Z,73.77
2023-01-19T01:19:47.715Z,73.98
2023-01-19T01:20:24.243Z,73.66
2023-01-19T01:21:05.054Z,73.66
2023-01-19T01:21:38.954Z,73.74
2023-01-19T01:22:12.519Z,74.06
2023-01-19T01:22:48.845Z,74.03
2023-01-19T01:23:23.139Z,73.95
2023-01-19T01:23:56.722Z,74.04
2023-01-19T01:24:30.659Z,73.90
2023-01-19T01:25:04.458Z,73.97
2023-01-19T01:25:38.878Z,74.16
2023-01-19T01:26:12.554Z,74.31
2023-01-19T01:26:46.265Z,74.31
2023-01-19T01:27:19.901Z,74.19
2023-01-19T01:27:54.529Z,74.16
2023-01-19T01:28:28.082Z,74.48
2023-01-19T01:29:02.036Z,74.23
2023-01-19T01:29:35.728Z,74.29
2023-01-19T01:30:11.726Z,74.43
2023-01-19T01:30:45.282Z,74.48
2023-01-19T01:31:18.877Z,74.65
2023-01-19T01:31:52.693Z,74.51
2023-01-19T01:32:26.488Z,74.31
2023-01-19T01:33:00.362Z,74.42
2023-01-19T01:33:40.758Z,74.55
2023-01-19T01:34:15.252Z,74.43
2023-01-19T01:34:48.900Z,74.50
2023-01-19T01:35:22.482Z,74.48
2023-01-19T01:35:56.052Z,74.64
2023-01-19T01:36:32.409Z,74.75
2023-01-19T01:37:08.441Z,74.75
2023-01-19T01:37:45.716Z,74.89
2023-01-19T01:38:19.249Z,74.40
2023-01-19T01:38:52.863Z,74.70
2023-01-19T01:39:26.389Z,74.51
2023-01-19T01:39:59.902Z,74.59
2023-01-19T01:40:33.437Z,74.71
2023-01-19T01:41:07.033Z,74.79
2023-01-19T01:41:40.604Z,74.78
2023-01-19T01:42:19.770Z,74.74
2023-01-19T01:42:53.324Z,74.82
2023-01-19T01:44:04.049Z,74.88
2023-01-19T01:44:53.217Z,74.91
2023-01-19T01:45:32.743Z,74.94
2023-01-19T01:46:06.751Z,74.92
2023-01-19T01:46:40.217Z,74.91
2023-01-19T01:47:14.157Z,75.08
2023-01-19T01:47:50.194Z,74.91
2023-01-19T01:48:31.094Z,74.94
2023-01-19T01:49:14.654Z,75.11
2023-01-19T01:49:48.841Z,75.10
2023-01-19T01:50:28.869Z,74.87
2023-01-19T01:51:27.055Z,75.06
2023-01-19T01:52:01.081Z,75.15
2023-01-19T01:52:39.148Z,74.96
2023-01-19T01:53:15.225Z,75.17
2023-01-19T01:54:09.769Z,75.07
2023-01-19T01:54:43.852Z,75.07
2023-01-19T01:55:18.838Z,74.95
2023-01-19T01:55:52.353Z,75.19
2023-01-19T01:56:34.566Z,74.94
2023-01-19T01:57:13.208Z,74.87
2023-01-19T01:57:52.204Z,75.20
2023-01-19T01:58:25.940Z,75.00
2023-01-19T01:59:03.162Z,74.87
2023-01-19T01:59:43.364Z,75.11
2023-01-19T02:00:17.325Z,75.08
2023-01-19T02:01:11.188Z,75.39
2023-01-19T02:02:03.814Z,75.44
2023-01-19T02:02:55.388Z,75.53
2023-01-19T02:03:29.727Z,75.64
2023-01-19T02:04:03.688Z,75.81
2023-01-19T02:04:38.754Z,75.74
2023-01-19T02:05:21.274Z,75.46
2023-01-19T02:05:59.581Z,75.72
2023-01-19T02:06:34.139Z,75.60
2023-01-19T02:07:26.532Z,75.93
2023-01-19T02:08:23.529Z,75.81
2023-01-19T02:09:25.124Z,75.69
2023-01-19T02:10:17.672Z,76.04
2023-01-19T02:11:10.548Z,76.12
2023-01-19T02:12:02.967Z,76.03
2023-01-19T02:12:55.592Z,76.19
2023-01-19T02:13:31.003Z,76.39
2023-01-19T02:14:06.026Z,76.44
2023-01-19T02:14:39.614Z,76.35
2023-01-19T02:15:19.361Z,76.36
2023-01-19T02:15:59.671Z,76.25
2023-01-19T02:16:34.261Z,76.07
2023-01-19T02:17:08.005Z,76.21
2023-01-19T02:17:41.495Z,76.39
2023-01-19T02:18:15.137Z,76.22
2023-01-19T02:18:48.882Z,75.90
2023-01-19T02:19:32.172Z,76.38
2023-01-19T02:20:06.497Z,76.19
2023-01-19T02:20:42.689Z,76.29
2023-01-19T02:21:47.018Z,76.30
2023-01-19T02:22:22.816Z,76.49
2023-01-19T02:23:03.441Z,76.77
2023-01-19T02:23:51.334Z,76.37
2023-01-19T02:24:25.817Z,76.61
2023-01-19T02:24:59.528Z,76.73
2023-01-19T02:25:33.469Z,76.65
2023-01-19T02:26:10.009Z,76.61
2023-01-19T02:26:47.167Z,76.67
2023-01-19T02:27:21.141Z,76.64
2023-01-19T02:27:55.587Z,76.59
2023-01-19T02:28:30.837Z,76.45
2023-01-19T02:29:30.690Z,76.75
2023-01-19T02:30:05.151Z,76.75
2023-01-19T02:30:41.420Z,76.60
2023-01-19T02:31:15.488Z,76.75
2023-01-19T02:31:49.088Z,76.80
2023-01-19T02:32:22.738Z,76.69
2023-01-19T02:32:56.252Z,76.57
2023-01-19T02:33:29.815Z,76.65
2023-01-19T02:34:05.739Z,76.78
2023-01-19T02:34:39.301Z,76.65
2023-01-19T02:35:13.333Z,76.76
2023-01-19T02:35:48.848Z,76.82
2023-01-19T02:36:27.370Z,76.59
2023-01-19T02:37:11.761Z,76.84
2023-01-19T02:37:45.988Z,76.81
2023-01-19T02:38:21.534Z,76.79
2023-01-19T02:39:00.406Z,76.71
2023-01-19T02:39:39.255Z,76.92
2023-01-19T02:40:20.021Z,76.96
2023-01-19T02:40:57.056Z,76.89
2023-01-19T02:41:37.708Z,77.16
2023-01-19T02:42:16.213Z,77.13
2023-01-19T02:42:52.265Z,77.08
2023-01-19T02:43:28.406Z,77.23
2023-01-19T02:44:03.627Z,77.38
2023-01-19T02:44:39.749Z,77.23
2023-01-19T02:45:17.188Z,77.26
2023-01-19T02:45:50.990Z,77.37
2023-01-19T02:46:25.955Z,77.32
2023-01-19T02:46:59.991Z,77.29
2023-01-19T02:47:43.227Z,76.96
2023-01-19T02:48:18.825Z,77.11
2023-01-19T02:48:52.405Z,77.28
2023-01-19T03:01:19.987Z,76.50
2023-01-19T03:02:17.830Z,76.18
2023-01-19T03:03:10.710Z,76.44
2023-01-19T03:04:19.989Z,76.48
2023-01-19T03:05:08.563Z,76.68
2023-01-19T03:05:54.509Z,76.67
2023-01-19T03:06:40.351Z,76.98
2023-01-19T03:07:27.669Z,77.06
2023-01-19T03:08:29.013Z,77.00
2023-01-19T03:09:11.648Z,77.13
2023-01-19T03:09:57.700Z,77.31
2023-01-19T03:10:43.082Z,77.37
2023-01-19T03:11:16.793Z,77.55
2023-01-19T03:12:09.825Z,77.46
2023-01-19T03:12:50.871Z,77.31
2023-01-19T03:13:32.978Z,77.62
2023-01-19T03:14:13.383Z,77.39
2023-01-19T03:14:48.759Z,77.41
2023-01-19T03:15:25.247Z,77.73
2023-01-19T03:16:31.057Z,77.37
2023-01-19T03:17:07.855Z,77.42
2023-01-19T03:17:44.988Z,77.55
2023-01-19T03:18:24.986Z,77.41
2023-01-19T03:19:10.421Z,77.46
2023-01-19T03:19:48.470Z,77.48
2023-01-19T03:20:25.785Z,77.40
2023-01-19T03:21:04.094Z,77.35
2023-01-19T03:21:39.427Z,77.56
2023-01-19T03:22:23.123Z,77.33
2023-01-19T03:23:04.613Z,77.25
2023-01-19T03:23:41.468Z,77.53
2023-01-19T03:24:17.710Z,77.08
2023-01-19T03:24:53.967Z,77.30
2023-01-19T03:25:31.369Z,77.35
2023-01-19T03:26:07.259Z,77.25
2023-01-19T03:26:47.058Z,77.34
2023-01-19T03:27:31.439Z,77.17
2023-01-19T03:28:05.298Z,77.43
2023-01-19T03:28:42.433Z,77.44
2023-01-19T03:29:17.795Z,77.41
2023-01-19T03:29:57.354Z,77.38
2023-01-19T03:30:41.791Z,77.33
2023-01-19T03:31:21.444Z,77.62
2023-01-19T03:31:57.564Z,77.37
2023-01-19T03:32:37.628Z,77.37
2023-01-19T03:33:23.969Z,77.55
2023-01-19T03:34:03.513Z,77.50
2023-01-19T03:34:39.568Z,77.45
2023-01-19T03:35:16.005Z,77.38
2023-01-19T03:35:53.198Z,77.45
2023-01-19T03:36:42.843Z,77.32
2023-01-19T03:37:19.877Z,77.47
2023-01-19T03:37:58.379Z,77.27
2023-01-19T03:38:37.164Z,77.29
2023-01-19T03:39:14.442Z,77.33
2023-01-19T03:39:48.116Z,77.51
2023-01-19T03:40:23.673Z,77.66
2023-01-19T03:41:02.549Z,77.58
2023-01-19T03:41:37.874Z,77.34
2023-01-19T03:42:14.752Z,77.50
2023-01-19T03:42:50.569Z,76.87
2023-01-19T03:43:25.923Z,77.29
2023-01-19T03:44:00.326Z,77.28
2023-01-19T03:44:37.879Z,77.29
2023-01-19T03:45:13.023Z,77.30
2023-01-19T03:45:47.013Z,77.54
2023-01-19T03:46:21.392Z,77.00
2023-01-19T03:46:57.018Z,77.16
2023-01-19T03:47:30.759Z,77.10
2023-01-19T03:48:05.507Z,77.24
2023-01-19T03:48:39.282Z,77.23
2023-01-19T03:49:13.005Z,77.17
2023-01-19T03:49:48.869Z,77.26
2023-01-19T03:50:27.694Z,77.30
2023-01-19T03:51:08.172Z,77.26
2023-01-19T03:51:42.120Z,77.44
2023-01-19T03:52:15.497Z,77.32
2023-01-19T03:53:10.143Z,77.45
2023-01-19T03:53:43.767Z,77.37
2023-01-19T03:54:17.578Z,77.53
2023-01-19T03:54:51.077Z,77.51
2023-01-19T03:55:24.662Z,77.43
2023-01-19T03:55:58.269Z,77.46
2023-01-19T03:56:31.984Z,77.52
2023-01-19T03:57:05.601Z,77.33
2023-01-19T03:57:39.140Z,77.43
2023-01-19T03:58:12.701Z,77.21
2023-01-19T03:58:47.175Z,77.26
2023-01-19T03:59:22.007Z,77.41
2023-01-19T03:59:56.115Z,77.36
2023-01-19T04:00:30.142Z,77.49
2023-01-19T04:01:04.424Z,77.46
2023-01-19T04:01:38.134Z,77.35
2023-01-19T04:02:11.794Z,77.47
2023-01-19T04:02:45.344Z,77.43
2023-01-19T04:03:18.996Z,77.51
2023-01-19T04:03:53.535Z,77.32
2023-01-19T04:04:27.040Z,77.54
2023-01-19T04:05:00.560Z,77.45
2023-01-19T04:05:34.317Z,77.21
2023-01-19T04:06:08.908Z,77.41
2023-01-19T04:06:43.492Z,77.42
2023-01-19T04:07:17.228Z,77.39
2023-01-19T04:07:54.313Z,77.44
2023-01-19T04:08:28.273Z,77.63
2023-01-19T04:09:02.078Z,77.34
2023-01-19T04:09:35.729Z,77.55
2023-01-19T04:10:12.885Z,77.57
2023-01-19T04:10:46.450Z,77.76
2023-01-19T04:11:20.005Z,77.59
2023-01-19T04:11:53.731Z,77.70
2023-01-19T04:12:27.443Z,77.73
2023-01-19T04:13:02.800Z,77.58
2023-01-19T04:13:37.091Z,77.44
2023-01-19T04:14:10.790Z,77.56
2023-01-19T04:14:44.367Z,77.50
2023-01-19T04:15:18.800Z,77.51
2023-01-19T04:15:52.237Z,77.67
2023-01-19T04:16:25.881Z,77.58
2023-01-19T04:16:59.442Z,77.43
2023-01-19T04:17:33.069Z,77.83
2023-01-19T04:18:07.200Z,77.66
2023-01-19T04:18:41.627Z,77.57
2023-01-19T04:19:15.230Z,77.62
2023-01-19T04:19:49.067Z,77.56
2023-01-19T04:20:22.784Z,77.75
2023-01-19T04:20:56.455Z,77.62
2023-01-19T04:21:30.102Z,77.51
2023-01-19T04:22:05.154Z,77.46
2023-01-19T04:22:39.536Z,77.26
2023-01-19T04:23:13.010Z,77.52
2023-01-19T04:23:46.889Z,77.19
2023-01-19T04:24:20.450Z,77.27
2023-01-19T04:24:54.013Z,77.29
2023-01-19T04:25:28.700Z,77.52
2023-01-19T04:26:05.284Z,77.08
2023-01-19T04:26:38.903Z,77.27
2023-01-19T04:27:12.420Z,77.52
2023-01-19T04:27:46.004Z,77.31
2023-01-19T04:28:19.507Z,77.42
2023-01-19T04:28:53.026Z,77.36
2023-01-19T04:29:26.639Z,77.32
2023-01-19T04:30:00.871Z,77.36
2023-01-19T04:30:34.658Z,77.30
2023-01-19T04:31:08.930Z,77.54
2023-01-19T04:31:42.396Z,77.45
2023-01-19T04:32:16.414Z,77.29
2023-01-19T04:32:50.079Z,77.22
2023-01-19T04:33:24.271Z,77.19
2023-01-19T04:33:57.921Z,77.03
2023-01-19T04:34:31.528Z,77.46
2023-01-19T04:35:05.569Z,77.11
2023-01-19T04:35:39.084Z,77.24
2023-01-19T04:36:12.840Z,77.48
2023-01-19T04:36:47.123Z,77.20
2023-01-19T04:37:20.793Z,77.34
2023-01-19T04:37:54.659Z,77.52
2023-01-19T04:38:28.439Z,77.39
2023-01-19T04:39:01.998Z,77.41
2023-01-19T04:39:36.094Z,77.31
2023-01-19T04:40:10.213Z,77.30
2023-01-19T04:40:43.810Z,77.33
2023-01-19T04:41:17.397Z,77.19
2023-01-19T04:41:52.092Z,77.28
2023-01-19T04:42:27.779Z,77.09
2023-01-19T04:43:01.771Z,77.21
2023-01-19T04:43:35.633Z,77.14
2023-01-19T04:44:09.356Z,77.31
2023-01-19T04:44:43.275Z,77.19
2023-01-19T04:45:17.673Z,77.40
2023-01-19T04:45:52.042Z,77.70
2023-01-19T04:46:25.548Z,77.27
2023-01-19T04:46:59.074Z,77.42
2023-01-19T04:47:32.479Z,77.48
2023-01-19T04:48:06.304Z,76.97
2023-01-19T04:48:41.328Z,77.04
2023-01-19T04:49:15.850Z,77.17
2023-01-19T04:49:49.298Z,77.28
2023-01-19T04:50:22.779Z,77.32
2023-01-19T04:50:56.306Z,77.20
2023-01-19T04:51:29.933Z,77.20
2023-01-19T04:52:05.005Z,77.10
2023-01-19T04:52:39.059Z,77.28
2023-01-19T04:53:13.933Z,77.52
2023-01-19T04:53:47.639Z,77.41
2023-01-19T04:54:21.494Z,77.58
2023-01-19T04:54:54.918Z,77.14
2023-01-19T04:55:28.434Z,77.24
2023-01-19T04:56:01.958Z,77.12
2023-01-19T04:56:36.030Z,77.20
2023-01-19T04:57:09.606Z,77.43
2023-01-19T04:57:43.823Z,77.29
2023-01-19T04:58:17.314Z,77.09
2023-01-19T04:58:50.742Z,77.21
2023-01-19T04:59:24.459Z,77.17
2023-01-19T04:59:58.858Z,77.05
2023-01-19T05:00:32.559Z,77.31
2023-01-19T05:01:10.013Z,77.34
2023-01-19T05:01:43.826Z,77.44
2023-01-19T05:02:17.985Z,77.45
2023-01-19T05:02:52.136Z,77.54
2023-01-19T05:03:26.672Z,77.43
2023-01-19T05:04:00.813Z,77.07
2023-01-19T05:04:34.414Z,77.04
2023-01-19T05:05:08.414Z,77.38
2023-01-19T05:05:42.046Z,77.46
2023-01-19T05:06:15.652Z,77.44
2023-01-19T05:06:49.755Z,77.39
2023-01-19T05:07:23.298Z,77.49
2023-01-19T05:07:56.890Z,77.53
2023-01-19T05:08:30.640Z,77.51
2023-01-19T05:09:04.808Z,77.64
2023-01-19T05:09:38.277Z,77.64
2023-01-19T05:10:12.660Z,77.51
2023-01-19T05:10:46.377Z,77.67
2023-01-19T05:11:19.840Z,77.61
2023-01-19T05:11:53.403Z,77.59
2023-01-19T05:12:27.637Z,77.63
2023-01-19T05:13:01.571Z,77.61
2023-01-19T05:13:35.646Z,77.42
2023-01-19T05:14:10.065Z,77.15
2023-01-19T05:14:43.748Z,77.03
2023-01-19T05:15:17.554Z,77.13
2023-01-19T05:15:51.148Z,77.22
2023-01-19T05:16:24.881Z,77.31
2023-01-19T05:16:58.944Z,77.31
2023-01-19T05:17:32.609Z,77.38
2023-01-19T05:18:06.714Z,76.98
2023-01-19T05:18:40.940Z,77.01
2023-01-19T05:19:14.459Z,77.18
2023-01-19T05:19:49.093Z,77.04
2023-01-19T05:20:22.727Z,77.04
2023-01-19T05:20:56.280Z,77.25
2023-01-19T05:21:30.021Z,77.13
2023-01-19T05:22:04.736Z,76.90
2023-01-19T05:22:39.495Z,76.99
2023-01-19T05:23:13.099Z,76.85
2023-01-19T05:23:46.628Z,77.07
2023-01-19T05:24:22.843Z,77.16
2023-01-19T05:24:58.002Z,76.72
2023-01-19T05:25:31.669Z,77.11
2023-01-19T05:26:05.404Z,77.03
2023-01-19T05:26:38.893Z,77.09
2023-01-19T05:27:12.578Z,77.18
2023-01-19T05:27:48.475Z,77.08
2023-01-19T05:28:21.991Z,77.05
2023-01-19T05:28:55.551Z,77.25
2023-01-19T05:29:29.031Z,77.23
2023-01-19T05:30:02.687Z,77.20
2023-01-19T05:30:36.928Z,77.43
2023-01-19T05:31:10.696Z,77.38
2023-01-19T05:31:44.284Z,77.25
2023-01-19T05:32:17.815Z,77.03
2023-01-19T05:32:51.352Z,77.19
2023-01-19T05:33:25.453Z,77.25
2023-01-19T05:33:59.083Z,77.11
2023-01-19T05:34:32.548Z,77.19
2023-01-19T05:35:06.763Z,77.05
2023-01-19T05:35:40.293Z,77.08
2023-01-19T05:36:13.923Z,76.95
2023-01-19T05:36:49.727Z,76.83
2023-01-19T05:37:23.299Z,76.94
2023-01-19T05:37:56.855Z,77.24
2023-01-19T05:38:35.338Z,77.33
2023-01-19T05:39:09.611Z,77.18
2023-01-19T05:39:43.378Z,77.24
2023-01-19T05:40:17.165Z,77.27
2023-01-19T05:40:56.664Z,77.11
2023-01-19T05:41:30.687Z,77.11
2023-01-19T05:42:04.412Z,77.15
2023-01-19T05:42:38.566Z,76.78
2023-01-19T05:43:12.244Z,76.76
2023-01-19T05:43:45.808Z,76.46
2023-01-19T05:44:19.264Z,76.56
2023-01-19T05:44:53.089Z,76.77
2023-01-19T05:45:28.560Z,76.59
2023-01-19T05:46:05.142Z,76.64
2023-01-19T05:46:39.748Z,76.66
2023-01-19T05:47:13.588Z,76.66
2023-01-19T05:47:47.165Z,76.61
2023-01-19T05:48:20.793Z,76.83
2023-01-19T05:48:54.404Z,76.90
2023-01-19T05:49:28.231Z,77.02
2023-01-19T05:50:01.817Z,77.00
2023-01-19T05:50:35.593Z,77.08
2023-01-19T05:51:09.268Z,76.91
2023-01-19T05:51:45.560Z,77.07
2023-01-19T05:52:19.092Z,76.75
2023-01-19T05:52:59.331Z,76.72
2023-01-19T05:53:33.066Z,76.81
2023-01-19T05:54:08.278Z,76.88
2023-01-19T05:54:41.705Z,77.06
2023-01-19T05:55:16.447Z,76.81
2023-01-19T05:55:50.048Z,76.91
2023-01-19T05:56:23.623Z,76.97
2023-01-19T05:56:57.935Z,76.80
2023-01-19T05:57:31.533Z,76.59
2023-01-19T05:58:05.209Z,76.77
2023-01-19T05:58:42.138Z,76.45
2023-01-19T05:59:17.713Z,76.57
2023-01-19T05:59:51.361Z,76.39
2023-01-19T06:00:25.954Z,76.47
2023-01-19T06:01:03.634Z,76.69
2023-01-19T06:01:39.858Z,76.64
2023-01-19T06:02:13.875Z,76.67
2023-01-19T06:02:49.550Z,76.85
2023-01-19T06:03:23.356Z,76.71
2023-01-19T06:03:57.141Z,76.93
2023-01-19T06:04:31.153Z,76.64
2023-01-19T06:05:05.701Z,76.67
2023-01-19T06:05:39.897Z,76.49
2023-01-19T06:06:17.958Z,76.63
2023-01-19T06:06:52.270Z,76.82
2023-01-19T06:07:28.293Z,76.55
2023-01-19T06:08:02.963Z,76.21
2023-01-19T06:08:37.345Z,76.70
2023-01-19T06:09:11.697Z,76.69
2023-01-19T06:09:45.780Z,76.67
2023-01-19T06:10:19.678Z,76.61
2023-01-19T06:10:53.638Z,76.46
2023-01-19T06:11:27.747Z,76.67
2023-01-19T06:12:01.738Z,76.83
2023-01-19T06:12:35.926Z,76.76
2023-01-19T06:13:11.469Z,76.85
2023-01-19T06:13:45.548Z,76.54
2023-01-19T06:14:19.410Z,76.26
2023-01-19T06:14:53.250Z,76.39
2023-01-19T06:15:27.217Z,76.61
2023-01-19T06:16:02.805Z,76.45
2023-01-19T06:16:37.140Z,76.49
2023-01-19T06:17:11.384Z,76.72
2023-01-19T06:17:45.317Z,76.72
2023-01-19T06:18:19.199Z,76.75
2023-01-19T06:18:55.389Z,76.67
2023-01-19T06:19:29.444Z,76.38
2023-01-19T06:20:03.829Z,76.59
2023-01-19T06:20:38.059Z,76.55
2023-01-19T06:21:14.623Z,76.63
2023-01-19T06:21:52.607Z,76.47
2023-01-19T06:22:26.531Z,76.73
2023-01-19T06:23:01.647Z,76.48
2023-01-19T06:23:37.254Z,76.62
2023-01-19T06:24:12.623Z,76.41
2023-01-19T06:24:51.058Z,76.63
2023-01-19T06:25:25.768Z,76.64
2023-01-19T06:25:59.843Z,76.77
2023-01-19T06:26:33.547Z,76.34
2023-01-19T06:27:07.350Z,76.74
2023-01-19T06:27:45.266Z,76.47
2023-01-19T06:28:19.113Z,76.33
2023-01-19T06:28:53.077Z,76.21
2023-01-19T06:29:29.737Z,76.31
2023-01-19T06:30:04.935Z,76.31
2023-01-19T06:30:38.707Z,76.32
2023-01-19T06:31:12.940Z,76.51
2023-01-19T06:31:49.821Z,76.55
2023-01-19T06:32:23.658Z,76.71
2023-01-19T06:32:57.623Z,76.42
2023-01-19T06:33:31.793Z,76.23
2023-01-19T06:34:08.248Z,76.20
2023-01-19T06:34:44.019Z,75.87
2023-01-19T06:35:18.675Z,75.97
2023-01-19T06:35:52.915Z,75.78
2023-01-19T06:36:26.971Z,75.98
2023-01-19T06:37:00.828Z,75.99
2023-01-19T06:37:35.812Z,75.63
2023-01-19T06:38:09.692Z,75.78
2023-01-19T06:38:43.493Z,76.02
2023-01-19T06:39:17.301Z,76.21
2023-01-19T06:39:51.076Z,76.02
2023-01-19T06:40:24.920Z,76.16
2023-01-19T06:40:59.517Z,76.00
2023-01-19T06:41:34.378Z,76.05
2023-01-19T06:42:08.747Z,75.86
2023-01-19T06:42:42.915Z,76.03
2023-01-19T06:43:20.624Z,76.12
2023-01-19T06:44:00.721Z,76.27
2023-01-19T06:44:35.339Z,76.43
2023-01-19T06:45:17.725Z,76.45
2023-01-19T06:45:52.428Z,76.57
2023-01-19T06:46:29.849Z,76.34
2023-01-19T06:47:15.763Z,76.04
2023-01-19T06:47:50.198Z,76.26
2023-01-19T06:48:24.988Z,76.45
2023-01-19T06:48:58.852Z,76.40
2023-01-19T06:49:32.616Z,76.35
2023-01-19T06:50:06.779Z,76.39
2023-01-19T06:50:53.363Z,76.39
2023-01-19T06:51:27.567Z,76.56
2023-01-19T06:52:02.029Z,76.25
2023-01-19T06:52:42.794Z,76.23
2023-01-19T06:53:18.051Z,76.34
2023-01-19T06:53:52.579Z,76.13
2023-01-19T06:54:28.128Z,76.14
2023-01-19T06:55:06.286Z,76.08
2023-01-19T06:55:40.540Z,75.90
2023-01-19T06:56:14.736Z,76.04
2023-01-19T06:56:54.031Z,76.03
2023-01-19T06:57:29.846Z,76.27
2023-01-19T06:58:04.281Z,76.34
2023-01-19T06:58:40.479Z,76.41
2023-01-19T06:59:17.885Z,76.11
2023-01-19T06:59:53.090Z,76.20
2023-01-19T07:00:28.416Z,76.34
2023-01-19T07:01:07.366Z,76.13
2023-01-19T07:01:43.047Z,76.19
2023-01-19T07:02:27.347Z,76.27
2023-01-19T07:03:24.392Z,76.12
2023-01-19T07:04:00.406Z,75.93
2023-01-19T07:04:35.141Z,76.26
2023-01-19T07:05:10.912Z,76.23
2023-01-19T07:05:44.581Z,76.46
2023-01-19T07:06:18.675Z,76.26
2023-01-19T07:06:52.636Z,76.20
2023-01-19T07:07:27.000Z,76.24
2023-01-19T07:08:01.397Z,76.13
2023-01-19T07:08:37.436Z,75.83
2023-01-19T07:09:16.783Z,75.89
2023-01-19T07:09:53.802Z,76.07
2023-01-19T07:11:24.361Z,76.17
2023-01-19T07:11:30.282Z,76.17
2023-01-19T07:12:07.032Z,76.12
2023-01-19T07:12:41.198Z,76.18
2023-01-19T07:13:35.912Z,76.25
2023-01-19T07:14:10.534Z,76.33
2023-01-19T07:14:44.877Z,76.16
2023-01-19T07:15:23.028Z,76.20
2023-01-19T07:15:57.449Z,76.04
2023-01-19T07:16:31.655Z,75.88
2023-01-19T07:17:05.684Z,75.90
2023-01-19T07:17:39.680Z,75.96
2023-01-19T07:18:14.014Z,75.98
2023-01-19T07:18:51.251Z,75.83
2023-01-19T07:19:26.199Z,75.98
2023-01-19T07:20:00.619Z,75.65
2023-01-19T07:20:36.720Z,75.83
2023-01-19T07:21:13.060Z,75.79
2023-01-19T07:21:51.123Z,75.99
2023-01-19T07:22:29.494Z,76.06
2023-01-19T07:23:07.072Z,76.01
2023-01-19T07:23:43.664Z,76.13
2023-01-19T07:24:38.642Z,76.03
2023-01-19T07:25:14.050Z,75.95
2023-01-19T07:25:48.863Z,75.71
2023-01-19T07:26:26.161Z,75.82
2023-01-19T07:27:03.475Z,75.91
2023-01-19T07:27:41.397Z,75.81
2023-01-19T07:28:16.775Z,75.73
2023-01-19T07:28:52.242Z,75.57
2023-01-19T07:29:27.078Z,75.53
2023-01-19T07:30:19.511Z,75.61
2023-01-19T07:30:55.958Z,75.56
2023-01-19T07:31:31.008Z,75.71
2023-01-19T07:32:07.209Z,75.71
2023-01-19T07:32:45.887Z,75.73
2023-01-19T07:33:22.840Z,75.48
2023-01-19T07:33:58.228Z,75.41
2023-01-19T07:34:33.449Z,75.39
2023-01-19T07:35:09.598Z,75.24
2023-01-19T07:35:51.327Z,75.51
2023-01-19T07:36:25.393Z,75.29
2023-01-19T07:37:00.033Z,75.03
2023-01-19T07:37:35.299Z,75.18
2023-01-19T07:38:09.581Z,75.07
2023-01-19T07:38:44.215Z,75.12
2023-01-19T07:39:19.037Z,75.19
2023-01-19T07:39:53.594Z,74.90
2023-01-19T07:40:27.616Z,74.94
2023-01-19T07:41:03.394Z,74.99
2023-01-19T07:41:38.224Z,74.66
2023-01-19T07:42:14.620Z,74.60
2023-01-19T07:42:51.242Z,74.46
2023-01-19T07:43:25.439Z,74.35
2023-01-19T07:44:00.371Z,74.03
2023-01-19T07:44:36.282Z,74.34
2023-01-19T07:45:10.988Z,74.41
2023-01-19T07:45:45.896Z,74.42
2023-01-19T07:46:20.538Z,74.53
2023-01-19T07:46:54.955Z,74.04
2023-01-19T07:47:28.670Z,74.11
2023-01-19T07:48:03.425Z,73.91
2023-01-19T07:48:48.139Z,73.91
2023-01-19T07:49:22.152Z,73.89
2023-01-19T07:49:56.131Z,74.06
2023-01-19T07:50:30.126Z,74.07
2023-01-19T07:51:05.980Z,74.29
2023-01-19T07:51:39.916Z,74.04
2023-01-19T07:52:13.787Z,74.00
2023-01-19T07:52:50.857Z,73.76
2023-01-19T07:53:24.713Z,73.82
2023-01-19T07:53:58.688Z,73.78
2023-01-19T07:54:32.597Z,73.67
2023-01-19T07:55:07.163Z,73.58
2023-01-19T07:55:41.002Z,74.04
2023-01-19T07:57:05.577Z,73.79
2023-01-19T07:57:39.472Z,73.88
2023-01-19T07:58:13.472Z,73.66
2023-01-19T07:58:48.076Z,73.70
2023-01-19T07:59:22.664Z,73.63